Jefferson, MD

4:16 PM EDT on August 20, 2014 (GMT -0400)
WXFRNX | Change Station
CLOSE
Current Station
Personal Weather Station
Location: Jefferson, MD
Elevation: 597 ft
Nearby Weather Stations

Elev 597 ft 39.37 °N, 77.53 °W | Updated 1 minute ago

Light Thunderstorms and Rain
Light Thunderstorm Rain
72.1 °F
Feels Like 72.1 °F
N
0.0
Wind Variable Wind from NW
Gusts 0.0 mph

Today
High -- | Low -- °F
--% Chance of Precip.
Yesterday
High -- | Low -- °F
Precip. -- in
6:27 AM 7:58 PM
Waning Crescent, 19% visible
Pressure 29.99 in
Visibility 7.0 miles
Clouds Overcast 4400 ft
Dew Point 71 °F
Humidity 95%
Rainfall 0.07 in
Snow Depth Not available.
UV 2 out of 12
Pollen 8.80 out of 12
Air Quality Not available.
Flu Activity Not available.
METAR KFDK 201945Z 32006KT 7SM -TSRA OVC044 23/22 A2999

More Conditions Fewer Conditions

Pressure 29.99 in
Visibility 7.0 miles
Clouds Overcast 4400 ft
Dew Point 71 °F
Humidity 95%
Rainfall 0.07 in
Snow Depth Not available.
UV 2 out of 12
Pollen 8.80 out of 12
Air Quality Not available.
Flu Activity Not available.
METAR KFDK 201945Z 32006KT 7SM -TSRA OVC044 23/22 A2999

More Conditions Fewer Conditions

Nowcast | as of 3:18 PM EDT on August 20, 2014

At 316 PM EDT...Doppler radar detected a line of thunderstorms. These thunderstorms were located along a line extending from Point of Rocks to St. Louis...moving east at 15 mph. Locations that likely will be impacted include Oatlands...Leesburg... Lansdowne...Broadlands...Poolesville and Brambleton. Heavy rain with these thunderstorms will reduce visibilities to below one mile and may cause ponding of water on roadways. Wind gusts of 35 to 50 mph can be expected with these thunderstorms. Lat...Lon 3935 7719 3915 7727 3893 7747 3893 7794 3934 7760 time...Mot...loc 1918z 267deg 14kt 3929 7753 3897 7779

×

10-Day Weather Forecast

Almanac

Astronomy

Aug. 20, 2014 Rise Set
Actual Time 6:27 AM EDT 7:58 PM EDT
Civil Twilight 5:59 AM EDT 8:27 PM EDT
Nautical Twilight 5:25 AM EDT 9:01 PM EDT
Astronomical Twilight 4:49 AM EDT 9:37 PM EDT
Moon 2:06 AM EDT 4:41 PM EDT
Length of Visible Light 14h 27m
Length of Day
13h 31m
Tomorrow will be 2m 20s shorter.
Waning Crescent, 19% of the Moon is Illuminated
Today
Waning Crescent
Aug 25
New
Sep 2
First Quarter
Sep 8
Full
Sep 15
Last Quarter

Today's Extremes

State Highs State Lows

Community

WunderPhotos

Upload Photos

1,745,742 photos uploaded!

WunderBlogs® & News

By Dr. Jeff Masters
Director of Meteorology, Weather Underground
By Kari Strenfel
Meteorologist, Weather Underground
By Christopher C. Burt
Weather Historian, Weather Underground
August 20, 2014
August 20, 2014
August 20, 2014

Nearby

Snow Depth

Station Depth Elevation
No new snow has been reported.

Earthquake Activity

City Distance Mag. Time & Date
No recent earthquake activity has been reported nearby.
Minimum magnitude displayed is 2.5.

Coastal Water Temperatures

Place Temperature
No Stations Reporting

Nearby Weather Stations